Metar z połowy godziny Komunikat METAR ze strony awiacja.imgw.pl Metar G00 EPMO METAR EPMO 230830Z 26018KT 9999 FEW040 09/M00 Q1018 =